Norwegian Crown — C6II4 — position and weather

sailwx.info

Track history (hours):
 
Tides and Currents Weather Stations Pressure Air Temp Water Temp Dewpoint Dewpoint Depression Visibility Wind Speed Wind Dir Waves Ship Positions

Norwegian Crown

Operator: Norwegian Cruise Line

Last reported at 2017-Sep-26 14:30 UTC. Time now 2017-Sep-26 14:53 UTC.
Position N 59°54' E 010°44'.

Type: Ship. MMSI: 308785000.

Date/timePositionNaut miles runAvg speedWind from/ knotsBaromVisibWave heightAir tempDewpointWater temp
2017-Sep-26 14:30N 59°54' E 010°44'0 0.0
2017-Sep-26 14:00N 59°54' E 010°44'0 0.0
2017-Sep-26 13:30N 59°54' E 010°44'0 0.0
2017-Sep-26 13:00N 59°54' E 010°44'0 0.0
2017-Sep-26 12:30N 59°54' E 010°44'0 0.0
2017-Sep-26 12:00N 59°54' E 010°44'0 0.0
2017-Sep-26 11:30N 59°54' E 010°44'0 0.0
2017-Sep-26 11:00N 59°54' E 010°44'0 0.0
2017-Sep-26 10:30N 59°54' E 010°44'0 0.0
2017-Sep-26 10:00N 59°54' E 010°44'0 0.0
2017-Sep-26 09:30N 59°54' E 010°44'0 0.0
2017-Sep-26 09:00N 59°54' E 010°44'0 0.0
2017-Sep-26 08:30N 59°54' E 010°44'0 0.0
2017-Sep-26 08:00N 59°54' E 010°44'0 0.0
2017-Sep-26 07:30N 59°54' E 010°44'0 0.0
2017-Sep-26 07:00N 59°54' E 010°44'0 0.0
2017-Sep-26 06:30N 59°54' E 010°44'0 0.0
2017-Sep-26 06:00N 59°54' E 010°44'0 0.0
2017-Sep-26 05:30N 59°54' E 010°44'0 0.0
2017-Sep-26 05:00N 59°54' E 010°44'0 0.0
2017-Sep-26 04:30N 59°54' E 010°44'0 0.0
2017-Sep-26 04:00N 59°54' E 010°44'0 0.0
2017-Sep-26 03:30N 59°54' E 010°44'0 0.0
2017-Sep-26 03:00N 59°54' E 010°44'0 0.0
2017-Sep-26 02:30N 59°54' E 010°44'0 0.0
2017-Sep-26 02:00N 59°54' E 010°44'0 0.0
2017-Sep-26 01:30N 59°54' E 010°44'0 0.0
2017-Sep-26 01:00N 59°54' E 010°44'0 0.0
2017-Sep-26 00:30N 59°54' E 010°44'0 0.0
2017-Sep-26 00:00N 59°54' E 010°44'0 0.0
2017-Sep-25 23:30N 59°54' E 010°44'0 0.0
2017-Sep-25 23:00N 59°54' E 010°44'0 0.0
2017-Sep-25 22:30N 59°54' E 010°44'0 0.0
2017-Sep-25 22:00N 59°54' E 010°44'0 0.0
2017-Sep-25 21:30N 59°54' E 010°44'0 0.0
2017-Sep-25 21:00N 59°54' E 010°44'0 0.0
2017-Sep-25 20:30N 59°54' E 010°44'0 0.0
2017-Sep-25 20:00N 59°54' E 010°44'0 0.0
2017-Sep-25 19:30N 59°54' E 010°44'0 0.0
2017-Sep-25 19:00N 59°54' E 010°44'0 0.0
2017-Sep-25 18:30N 59°54' E 010°44'0 0.0
2017-Sep-25 18:00N 59°54' E 010°44'0 0.0
2017-Sep-25 17:30N 59°54' E 010°44'0 0.0
2017-Sep-25 17:00N 59°54' E 010°44'0 0.0
2017-Sep-25 16:30N 59°54' E 010°44'0 0.0
2017-Sep-25 16:00N 59°54' E 010°44'0 0.0
2017-Sep-25 15:30N 59°54' E 010°44'0 0.0
2017-Sep-25 15:00N 59°54' E 010°44'0 0.0
2017-Sep-25 14:30N 59°54' E 010°44'0 0.0
2017-Sep-25 13:57N 59°54' E 010°44'0 0.0
2017-Sep-25 13:30N 59°54' E 010°44'0 0.0
2017-Sep-25 13:00N 59°54' E 010°44'0 0.1
2017-Sep-25 12:30N 59°54' E 010°44'3 5.5
2017-Sep-25 12:00N 59°53' E 010°40'612.7
2017-Sep-25 11:31N 59°47' E 010°34'714.1
2017-Sep-25 11:00N 59°40' E 010°37'612.7
2017-Sep-25 10:30N 59°34' E 010°38'815.4
2017-Sep-25 10:00N 59°27' E 010°34'816.0
2017-Sep-25 09:30N 59°19' E 010°36'815.8
2017-Sep-25 09:00N 59°11' E 010°39'713.2
2017-Sep-25 08:30N 59°05' E 010°34'5 9.9
2017-Sep-25 08:00N 58°60' E 010°36'510.1
2017-Sep-25 07:31N 58°55' E 010°35'510.0
2017-Sep-25 07:01N 58°50' E 010°34'510.0
2017-Sep-25 06:31N 58°45' E 010°34'510.0
2017-Sep-25 06:00N 58°40' E 010°33'510.3
2017-Sep-25 05:30N 58°35' E 010°33'510.1
2017-Sep-25 05:00N 58°30' E 010°32'510.5
2017-Sep-25 04:31N 58°25' E 010°36'510.1
2017-Sep-25 04:00N 58°20' E 010°40'5 9.5
2017-Sep-25 03:27N 58°15' E 010°43'4 9.3
2017-Sep-25 03:00N 58°11' E 010°46'5 9.4
2017-Sep-25 02:30N 58°07' E 010°50'510.3
2017-Sep-25 01:59N 58°02' E 010°55'4 8.9
2017-Sep-25 01:29N 57°59' E 010°59'4 8.7
2017-Sep-25 00:59N 57°55' E 011°03'4 8.9
2017-Sep-25 00:30N 57°51' E 011°06'510.8
2017-Sep-25 00:00N 57°46' E 011°10'714.2
2017-Sep-24 23:30N 57°39' E 011°16'816.5
2017-Sep-24 23:00N 57°32' E 011°23'816.1
2017-Sep-24 22:31N 57°25' E 011°29'815.8
2017-Sep-24 22:00N 57°17' E 011°34'815.9
2017-Sep-24 21:29N 57°10' E 011°39'1015.8
2017-Sep-24 20:52N 57°00' E 011°45'615.5
2017-Sep-24 20:27N 56°54' E 011°48'715.6
2017-Sep-24 20:00N 56°47' E 011°52'816.0
2017-Sep-24 19:30N 56°40' E 011°56'1115.9
2017-Sep-24 18:47N 56°29' E 012°01'1315.3
2017-Sep-24 17:57N 56°17' E 012°09'715.3
2017-Sep-24 17:30N 56°13' E 012°19'816.4
2017-Sep-24 17:01N 56°08' E 012°31'917.0
2017-Sep-24 16:30N 56°01' E 012°40'816.3
2017-Sep-24 16:01N 55°54' E 012°44'815.8
2017-Sep-24 15:30N 55°46' E 012°42'714.1
2017-Sep-24 15:00N 55°39' E 012°42'5 9.1
2017-Sep-24 14:30N 55°34' E 012°42'510.4
2017-Sep-24 14:00N 55°29' E 012°42'612.6
2017-Sep-24 13:30N 55°23' E 012°41'612.9
2017-Sep-24 13:00N 55°17' E 012°46'815.7
2017-Sep-24 12:31N 55°15' E 012°60'816.2
2017-Sep-24 12:00N 55°15' E 013°14'816.3
2017-Sep-24 11:29N 55°14' E 013°29'916.2
2017-Sep-24 10:56N 55°14' E 013°45'816.1
2017-Sep-24 10:26N 55°14' E 013°59'716.3
2017-Sep-24 10:00N 55°13' E 014°11'715.1
2017-Sep-24 09:30N 55°17' E 014°22'816.1
2017-Sep-24 09:01N 55°23' E 014°31'815.8
2017-Sep-24 08:30N 55°28' E 014°42'816.1
2017-Sep-24 08:00N 55°32' E 014°55'816.2
2017-Sep-24 07:30N 55°36' E 015°07'816.3
2017-Sep-24 07:01N 55°40' E 015°19'713.6
2017-Sep-24 06:30N 55°44' E 015°30'917.3
2017-Sep-24 06:00N 55°48' E 015°43'917.3
2017-Sep-24 05:30N 55°54' E 015°55'817.1
2017-Sep-24 05:00N 55°57' E 016°08'917.5
2017-Sep-24 04:30N 56°01' E 016°22'917.6
2017-Sep-24 04:00N 56°06' E 016°36'917.4
2017-Sep-24 03:30N 56°11' E 016°49'816.6
2017-Sep-24 03:00N 56°18' E 016°55'  
2017-Sep-21 08:34N 55°49' E 016°03'115.7
2017-Sep-21 08:31N 55°48' E 016°02'815.7
2017-Sep-21 08:01N 55°44' E 015°50'815.6
2017-Sep-21 07:30N 55°40' E 015°38'714.4
2017-Sep-21 07:00N 55°37' E 015°26'612.4
2017-Sep-21 06:30N 55°34' E 015°17'815.8
2017-Sep-21 06:00N 55°31' E 015°04'815.4
2017-Sep-21 05:30N 55°28' E 014°52'815.8
2017-Sep-21 05:00N 55°24' E 014°40'815.4
2017-Sep-21 04:31N 55°18' E 014°31'815.7
2017-Sep-21 04:00N 55°12' E 014°22'612.3
2017-Sep-21 03:31N 55°10' E 014°12'815.5
2017-Sep-21 02:58N 55°10' E 013°57'1015.8
2017-Sep-21 02:20N 55°11' E 013°40'515.6
2017-Sep-21 02:00N 55°12' E 013°31'815.5
2017-Sep-21 01:30N 55°13' E 013°17'815.9
2017-Sep-21 01:01N 55°13' E 013°04'815.5
2017-Sep-21 00:30N 55°15' E 012°50'815.2
2017-Sep-21 00:00N 55°18' E 012°38'815.1
2017-Sep-20 23:30N 55°26' E 012°40'612.9
2017-Sep-20 23:00N 55°32' E 012°42'4 8.6
2017-Sep-20 22:30N 55°37' E 012°42'5 9.6
2017-Sep-20 22:00N 55°41' E 012°41'3 5.4
2017-Sep-20 21:30N 55°43' E 012°37'1 1.3
2017-Sep-20 20:59N 55°42' E 012°36'0 0.0
2017-Sep-20 20:29N 55°42' E 012°36'0 0.0
2017-Sep-20 19:59N 55°42' E 012°36'0 0.0
2017-Sep-20 19:29N 55°42' E 012°36'0 0.0
2017-Sep-20 18:59N 55°42' E 012°36'0 0.0
2017-Sep-20 18:29N 55°42' E 012°36'0 0.0
2017-Sep-20 17:59N 55°42' E 012°36'0 0.0
2017-Sep-20 17:29N 55°42' E 012°36'0 0.0
2017-Sep-20 16:59N 55°42' E 012°36'0 0.0
2017-Sep-20 16:29N 55°42' E 012°36'0 0.0
2017-Sep-20 15:59N 55°42' E 012°36'0 0.0
2017-Sep-20 15:29N 55°42' E 012°36'0 0.0
2017-Sep-20 14:59N 55°42' E 012°36'0 0.0
2017-Sep-20 13:59N 55°42' E 012°36'0 0.0
2017-Sep-20 13:29N 55°42' E 012°36'0 0.0
2017-Sep-20 12:59N 55°42' E 012°36'0 0.0
2017-Sep-20 12:29N 55°42' E 012°36'0 0.0
2017-Sep-20 11:59N 55°42' E 012°36'0 0.0
2017-Sep-20 11:29N 55°42' E 012°36'0 0.0
2017-Sep-20 10:59N 55°42' E 012°36'0 0.0
2017-Sep-20 10:29N 55°42' E 012°36'0 0.0
2017-Sep-20 09:59N 55°42' E 012°36'0 0.0
2017-Sep-20 09:29N 55°42' E 012°36'0 0.0
2017-Sep-20 08:59N 55°42' E 012°36'0 0.0
2017-Sep-20 08:29N 55°42' E 012°36'0 0.0
2017-Sep-20 07:59N 55°42' E 012°36'0 0.0
2017-Sep-20 07:29N 55°42' E 012°36'0 0.0
2017-Sep-20 06:59N 55°42' E 012°36'0 0.0
2017-Sep-20 06:29N 55°42' E 012°36'0 0.0
2017-Sep-20 05:59N 55°42' E 012°36'0 0.0
2017-Sep-20 05:29N 55°42' E 012°36'0 0.0
2017-Sep-20 04:59N 55°42' E 012°36'0 0.0
2017-Sep-20 04:29N 55°42' E 012°36'0 0.0
2017-Sep-20 03:59N 55°42' E 012°36'0 0.0
2017-Sep-20 03:29N 55°42' E 012°36'0 0.0
2017-Sep-20 02:59N 55°42' E 012°36'0 0.0
2017-Sep-20 02:29N 55°42' E 012°36'0 0.0
2017-Sep-20 01:59N 55°42' E 012°36'0 0.0
2017-Sep-20 01:29N 55°42' E 012°36'0 0.0
2017-Sep-20 00:59N 55°42' E 012°36'0 0.0
2017-Sep-20 00:29N 55°42' E 012°36'0 0.0
2017-Sep-19 23:59N 55°42' E 012°36'0 0.0
2017-Sep-19 23:29N 55°42' E 012°36'0 0.0
2017-Sep-19 22:59N 55°42' E 012°36'0 0.0
2017-Sep-19 22:29N 55°42' E 012°36'0 0.0
2017-Sep-19 21:59N 55°42' E 012°36'0 0.0
2017-Sep-19 21:29N 55°42' E 012°36'0 0.0
2017-Sep-19 20:59N 55°42' E 012°36'0 0.0
2017-Sep-19 20:29N 55°42' E 012°36'0 0.0
2017-Sep-19 19:59N 55°42' E 012°36'0 0.0
2017-Sep-19 19:29N 55°42' E 012°36'0 0.0
2017-Sep-19 18:59N 55°42' E 012°36'0 0.0
2017-Sep-19 18:29N 55°42' E 012°36'0 0.0
2017-Sep-19 17:59N 55°42' E 012°36'0 0.0
2017-Sep-19 17:29N 55°42' E 012°36'0 0.0
2017-Sep-19 16:59N 55°42' E 012°36'0 0.0
2017-Sep-19 16:29N 55°42' E 012°36'0 0.0
2017-Sep-19 15:59N 55°42' E 012°36'0 0.0
2017-Sep-19 15:29N 55°42' E 012°36'0 0.0
2017-Sep-19 14:59N 55°42' E 012°36'0 0.0
2017-Sep-19 14:29N 55°42' E 012°36'0 0.0
2017-Sep-19 13:59N 55°42' E 012°36'0 0.0
2017-Sep-19 13:29N 55°42' E 012°36'0 0.0
2017-Sep-19 12:59N 55°42' E 012°36'0 0.0
2017-Sep-19 12:29N 55°42' E 012°36'0 0.0
2017-Sep-19 11:59N 55°42' E 012°36'0 0.0
2017-Sep-19 11:29N 55°42' E 012°36'0 0.0
2017-Sep-19 10:59N 55°42' E 012°36'0 0.0
2017-Sep-19 10:29N 55°42' E 012°36'0 0.0
2017-Sep-19 09:59N 55°42' E 012°36'0 0.0
2017-Sep-19 09:29N 55°42' E 012°36'0 0.0
2017-Sep-19 08:59N 55°42' E 012°36'0 0.0
2017-Sep-19 08:29N 55°42' E 012°36'0 0.0
2017-Sep-19 08:01N 55°42' E 012°36'2 3.6
2017-Sep-19 07:31N 55°43' E 012°39'3 6.1
2017-Sep-19 07:01N 55°46' E 012°41'611.1
2017-Sep-19 06:31N 55°51' E 012°41'611.8
2017-Sep-19 06:01N 55°57' E 012°39'612.6
2017-Sep-19 05:30N 56°04' E 012°38'510.4
2017-Sep-19 05:01N 56°07' E 012°31'611.2
2017-Sep-19 04:31N 56°10' E 012°23'611.1
2017-Sep-19 04:01N 56°13' E 012°14'4214.0
2017-Sep-19 00:59N 56°53' E 011°47'1115.8
2017-Sep-19 00:18N 57°03' E 011°40'515.2
2017-Sep-18 23:59N 57°07' E 011°37'715.5
2017-Sep-18 23:30N 57°14' E 011°33'815.5
2017-Sep-18 23:00N 57°22' E 011°28'815.2
2017-Sep-18 22:30N 57°29' E 011°22'815.8
2017-Sep-18 22:00N 57°34' E 011°11'815.7
2017-Sep-18 21:30N 57°39' E 011°01'815.7
2017-Sep-18 21:00N 57°45' E 010°49'815.6
2017-Sep-18 20:30N 57°50' E 010°38'815.3
2017-Sep-18 20:00N 57°51' E 010°24'816.1
2017-Sep-18 19:29N 57°50' E 010°08'39215.5
2017-Sep-17 18:10N 55°15' W 000°45'214.8
2017-Sep-17 18:00N 55°14' W 000°49'714.9
2017-Sep-17 17:30N 55°10' W 000°60'714.9
2017-Sep-17 17:00N 55°06' W 001°10'715.0
2017-Sep-17 16:31N 55°01' W 001°21'4 7.4
2017-Sep-17 16:00N 54°59' W 001°27'0 0.2
2017-Sep-17 15:30N 54°60' W 001°27'0 0.0
2017-Sep-17 15:00N 54°60' W 001°27'0 0.0
2017-Sep-17 14:30N 54°60' W 001°27'0 0.0
2017-Sep-17 14:00N 54°60' W 001°27'0 0.0
2017-Sep-17 13:30N 54°60' W 001°27'0 0.0
2017-Sep-17 13:00N 54°60' W 001°27'0 0.0
2017-Sep-17 12:30N 54°60' W 001°27'0 0.0
2017-Sep-17 12:00N 54°60' W 001°27'0 0.0
2017-Sep-17 11:30N 54°60' W 001°27'0 0.0
2017-Sep-17 11:00N 54°60' W 001°27'0 0.0
2017-Sep-17 10:30N 54°60' W 001°27'0 0.0
2017-Sep-17 10:00N 54°60' W 001°27'0 0.0
2017-Sep-17 09:30N 54°60' W 001°27'0 0.0
2017-Sep-17 09:00N 54°60' W 001°27'0 0.0
2017-Sep-17 08:30N 54°60' W 001°27'0 0.0
2017-Sep-17 08:00N 54°60' W 001°27'0 0.0
2017-Sep-17 07:27N 54°60' W 001°27'0 0.0
2017-Sep-17 06:57N 54°60' W 001°27'0 0.0
2017-Sep-17 06:30N 54°60' W 001°27'0 0.0
2017-Sep-17 06:00N 54°60' W 001°27'0 0.0
2017-Sep-17 05:27N 54°60' W 001°27'0 0.0
2017-Sep-17 05:00N 54°60' W 001°27'0 0.2
2017-Sep-17 04:31N 54°60' W 001°27'3 6.0
2017-Sep-17 04:01N 55°01' W 001°22'510.7
2017-Sep-17 03:30N 55°05' W 001°15'611.2
2017-Sep-17 03:01N 55°08' W 001°08'611.1
2017-Sep-17 02:31N 55°13' W 001°02'510.1
2017-Sep-17 02:00N 55°17' W 000°58'5 9.4
2017-Sep-17 01:31N 55°21' W 000°54'  
Track history (hours):
 
Tides and Currents Weather Stations Pressure Air Temp Water Temp Dewpoint Dewpoint Depression Visibility Wind Speed Wind Dir Waves Ship Positions

Norwegian Crown

Operator: Norwegian Cruise Line

Last reported at 2017-Sep-26 14:30 UTC. Time now 2017-Sep-26 14:53 UTC.
Position N 59°54' E 010°44'.

Type: Ship. MMSI: 308785000.

Date/timePositionNaut miles runAvg speedWind from/ knotsBaromVisibWave heightAir tempDewpointWater temp
2017-Sep-26 14:30N 59°54' E 010°44'0 0.0
2017-Sep-26 14:00N 59°54' E 010°44'0 0.0
2017-Sep-26 13:30N 59°54' E 010°44'0 0.0
2017-Sep-26 13:00N 59°54' E 010°44'0 0.0
2017-Sep-26 12:30N 59°54' E 010°44'0 0.0
2017-Sep-26 12:00N 59°54' E 010°44'0 0.0
2017-Sep-26 11:30N 59°54' E 010°44'0 0.0
2017-Sep-26 11:00N 59°54' E 010°44'0 0.0
2017-Sep-26 10:30N 59°54' E 010°44'0 0.0
2017-Sep-26 10:00N 59°54' E 010°44'0 0.0
2017-Sep-26 09:30N 59°54' E 010°44'0 0.0
2017-Sep-26 09:00N 59°54' E 010°44'0 0.0
2017-Sep-26 08:30N 59°54' E 010°44'0 0.0
2017-Sep-26 08:00N 59°54' E 010°44'0 0.0
2017-Sep-26 07:30N 59°54' E 010°44'0 0.0
2017-Sep-26 07:00N 59°54' E 010°44'0 0.0
2017-Sep-26 06:30N 59°54' E 010°44'0 0.0
2017-Sep-26 06:00N 59°54' E 010°44'0 0.0
2017-Sep-26 05:30N 59°54' E 010°44'0 0.0
2017-Sep-26 05:00N 59°54' E 010°44'0 0.0
2017-Sep-26 04:30N 59°54' E 010°44'0 0.0
2017-Sep-26 04:00N 59°54' E 010°44'0 0.0
2017-Sep-26 03:30N 59°54' E 010°44'0 0.0
2017-Sep-26 03:00N 59°54' E 010°44'0 0.0
2017-Sep-26 02:30N 59°54' E 010°44'0 0.0
2017-Sep-26 02:00N 59°54' E 010°44'0 0.0
2017-Sep-26 01:30N 59°54' E 010°44'0 0.0
2017-Sep-26 01:00N 59°54' E 010°44'0 0.0
2017-Sep-26 00:30N 59°54' E 010°44'0 0.0
2017-Sep-26 00:00N 59°54' E 010°44'0 0.0
2017-Sep-25 23:30N 59°54' E 010°44'0 0.0
2017-Sep-25 23:00N 59°54' E 010°44'0 0.0
2017-Sep-25 22:30N 59°54' E 010°44'0 0.0
2017-Sep-25 22:00N 59°54' E 010°44'0 0.0
2017-Sep-25 21:30N 59°54' E 010°44'0 0.0
2017-Sep-25 21:00N 59°54' E 010°44'0 0.0
2017-Sep-25 20:30N 59°54' E 010°44'0 0.0
2017-Sep-25 20:00N 59°54' E 010°44'0 0.0
2017-Sep-25 19:30N 59°54' E 010°44'0 0.0
2017-Sep-25 19:00N 59°54' E 010°44'0 0.0
2017-Sep-25 18:30N 59°54' E 010°44'0 0.0
2017-Sep-25 18:00N 59°54' E 010°44'0 0.0
2017-Sep-25 17:30N 59°54' E 010°44'0 0.0
2017-Sep-25 17:00N 59°54' E 010°44'0 0.0
2017-Sep-25 16:30N 59°54' E 010°44'0 0.0
2017-Sep-25 16:00N 59°54' E 010°44'0 0.0
2017-Sep-25 15:30N 59°54' E 010°44'0 0.0
2017-Sep-25 15:00N 59°54' E 010°44'0 0.0
2017-Sep-25 14:30N 59°54' E 010°44'0 0.0
2017-Sep-25 13:57N 59°54' E 010°44'0 0.0
2017-Sep-25 13:30N 59°54' E 010°44'0 0.0
2017-Sep-25 13:00N 59°54' E 010°44'0 0.1
2017-Sep-25 12:30N 59°54' E 010°44'3 5.5
2017-Sep-25 12:00N 59°53' E 010°40'612.7
2017-Sep-25 11:31N 59°47' E 010°34'714.1
2017-Sep-25 11:00N 59°40' E 010°37'612.7
2017-Sep-25 10:30N 59°34' E 010°38'815.4
2017-Sep-25 10:00N 59°27' E 010°34'816.0
2017-Sep-25 09:30N 59°19' E 010°36'815.8
2017-Sep-25 09:00N 59°11' E 010°39'713.2
2017-Sep-25 08:30N 59°05' E 010°34'5 9.9
2017-Sep-25 08:00N 58°60' E 010°36'510.1
2017-Sep-25 07:31N 58°55' E 010°35'510.0
2017-Sep-25 07:01N 58°50' E 010°34'510.0
2017-Sep-25 06:31N 58°45' E 010°34'510.0
2017-Sep-25 06:00N 58°40' E 010°33'510.3
2017-Sep-25 05:30N 58°35' E 010°33'510.1
2017-Sep-25 05:00N 58°30' E 010°32'510.5
2017-Sep-25 04:31N 58°25' E 010°36'510.1
2017-Sep-25 04:00N 58°20' E 010°40'5 9.5
2017-Sep-25 03:27N 58°15' E 010°43'4 9.3
2017-Sep-25 03:00N 58°11' E 010°46'5 9.4
2017-Sep-25 02:30N 58°07' E 010°50'510.3
2017-Sep-25 01:59N 58°02' E 010°55'4 8.9
2017-Sep-25 01:29N 57°59' E 010°59'4 8.7
2017-Sep-25 00:59N 57°55' E 011°03'4 8.9
2017-Sep-25 00:30N 57°51' E 011°06'510.8
2017-Sep-25 00:00N 57°46' E 011°10'714.2
2017-Sep-24 23:30N 57°39' E 011°16'816.5
2017-Sep-24 23:00N 57°32' E 011°23'816.1
2017-Sep-24 22:31N 57°25' E 011°29'815.8
2017-Sep-24 22:00N 57°17' E 011°34'815.9
2017-Sep-24 21:29N 57°10' E 011°39'1015.8
2017-Sep-24 20:52N 57°00' E 011°45'615.5
2017-Sep-24 20:27N 56°54' E 011°48'715.6
2017-Sep-24 20:00N 56°47' E 011°52'816.0
2017-Sep-24 19:30N 56°40' E 011°56'1115.9
2017-Sep-24 18:47N 56°29' E 012°01'1315.3
2017-Sep-24 17:57N 56°17' E 012°09'715.3
2017-Sep-24 17:30N 56°13' E 012°19'816.4
2017-Sep-24 17:01N 56°08' E 012°31'917.0
2017-Sep-24 16:30N 56°01' E 012°40'816.3
2017-Sep-24 16:01N 55°54' E 012°44'815.8
2017-Sep-24 15:30N 55°46' E 012°42'714.1
2017-Sep-24 15:00N 55°39' E 012°42'5 9.1
2017-Sep-24 14:30N 55°34' E 012°42'510.4
2017-Sep-24 14:00N 55°29' E 012°42'612.6
2017-Sep-24 13:30N 55°23' E 012°41'612.9
2017-Sep-24 13:00N 55°17' E 012°46'815.7
2017-Sep-24 12:31N 55°15' E 012°60'816.2
2017-Sep-24 12:00N 55°15' E 013°14'816.3
2017-Sep-24 11:29N 55°14' E 013°29'916.2
2017-Sep-24 10:56N 55°14' E 013°45'816.1
2017-Sep-24 10:26N 55°14' E 013°59'716.3
2017-Sep-24 10:00N 55°13' E 014°11'715.1
2017-Sep-24 09:30N 55°17' E 014°22'816.1
2017-Sep-24 09:01N 55°23' E 014°31'815.8
2017-Sep-24 08:30N 55°28' E 014°42'816.1
2017-Sep-24 08:00N 55°32' E 014°55'816.2
2017-Sep-24 07:30N 55°36' E 015°07'816.3
2017-Sep-24 07:01N 55°40' E 015°19'713.6
2017-Sep-24 06:30N 55°44' E 015°30'917.3
2017-Sep-24 06:00N 55°48' E 015°43'917.3
2017-Sep-24 05:30N 55°54' E 015°55'817.1
2017-Sep-24 05:00N 55°57' E 016°08'917.5
2017-Sep-24 04:30N 56°01' E 016°22'917.6
2017-Sep-24 04:00N 56°06' E 016°36'917.4
2017-Sep-24 03:30N 56°11' E 016°49'816.6
2017-Sep-24 03:00N 56°18' E 016°55'  
2017-Sep-21 08:34N 55°49' E 016°03'115.7
2017-Sep-21 08:31N 55°48' E 016°02'815.7
2017-Sep-21 08:01N 55°44' E 015°50'815.6
2017-Sep-21 07:30N 55°40' E 015°38'714.4
2017-Sep-21 07:00N 55°37' E 015°26'612.4
2017-Sep-21 06:30N 55°34' E 015°17'815.8
2017-Sep-21 06:00N 55°31' E 015°04'815.4
2017-Sep-21 05:30N 55°28' E 014°52'815.8
2017-Sep-21 05:00N 55°24' E 014°40'815.4
2017-Sep-21 04:31N 55°18' E 014°31'815.7
2017-Sep-21 04:00N 55°12' E 014°22'612.3
2017-Sep-21 03:31N 55°10' E 014°12'815.5
2017-Sep-21 02:58N 55°10' E 013°57'1015.8
2017-Sep-21 02:20N 55°11' E 013°40'515.6
2017-Sep-21 02:00N 55°12' E 013°31'815.5
2017-Sep-21 01:30N 55°13' E 013°17'815.9
2017-Sep-21 01:01N 55°13' E 013°04'815.5
2017-Sep-21 00:30N 55°15' E 012°50'815.2
2017-Sep-21 00:00N 55°18' E 012°38'815.1
2017-Sep-20 23:30N 55°26' E 012°40'612.9
2017-Sep-20 23:00N 55°32' E 012°42'4 8.6
2017-Sep-20 22:30N 55°37' E 012°42'5 9.6
2017-Sep-20 22:00N 55°41' E 012°41'3 5.4
2017-Sep-20 21:30N 55°43' E 012°37'1 1.3
2017-Sep-20 20:59N 55°42' E 012°36'0 0.0
2017-Sep-20 20:29N 55°42' E 012°36'0 0.0
2017-Sep-20 19:59N 55°42' E 012°36'0 0.0
2017-Sep-20 19:29N 55°42' E 012°36'0 0.0
2017-Sep-20 18:59N 55°42' E 012°36'0 0.0
2017-Sep-20 18:29N 55°42' E 012°36'0 0.0
2017-Sep-20 17:59N 55°42' E 012°36'0 0.0
2017-Sep-20 17:29N 55°42' E 012°36'0 0.0
2017-Sep-20 16:59N 55°42' E 012°36'0 0.0
2017-Sep-20 16:29N 55°42' E 012°36'0 0.0
2017-Sep-20 15:59N 55°42' E 012°36'0 0.0
2017-Sep-20 15:29N 55°42' E 012°36'0 0.0
2017-Sep-20 14:59N 55°42' E 012°36'0 0.0
2017-Sep-20 13:59N 55°42' E 012°36'0 0.0
2017-Sep-20 13:29N 55°42' E 012°36'0 0.0
2017-Sep-20 12:59N 55°42' E 012°36'0 0.0
2017-Sep-20 12:29N 55°42' E 012°36'0 0.0
2017-Sep-20 11:59N 55°42' E 012°36'0 0.0
2017-Sep-20 11:29N 55°42' E 012°36'0 0.0
2017-Sep-20 10:59N 55°42' E 012°36'0 0.0
2017-Sep-20 10:29N 55°42' E 012°36'0 0.0
2017-Sep-20 09:59N 55°42' E 012°36'0 0.0
2017-Sep-20 09:29N 55°42' E 012°36'0 0.0
2017-Sep-20 08:59N 55°42' E 012°36'0 0.0
2017-Sep-20 08:29N 55°42' E 012°36'0 0.0
2017-Sep-20 07:59N 55°42' E 012°36'0 0.0
2017-Sep-20 07:29N 55°42' E 012°36'0 0.0
2017-Sep-20 06:59N 55°42' E 012°36'0 0.0
2017-Sep-20 06:29N 55°42' E 012°36'0 0.0
2017-Sep-20 05:59N 55°42' E 012°36'0 0.0
2017-Sep-20 05:29N 55°42' E 012°36'0 0.0
2017-Sep-20 04:59N 55°42' E 012°36'0 0.0
2017-Sep-20 04:29N 55°42' E 012°36'0 0.0
2017-Sep-20 03:59N 55°42' E 012°36'0 0.0
2017-Sep-20 03:29N 55°42' E 012°36'0 0.0
2017-Sep-20 02:59N 55°42' E 012°36'0 0.0
2017-Sep-20 02:29N 55°42' E 012°36'0 0.0
2017-Sep-20 01:59N 55°42' E 012°36'0 0.0
2017-Sep-20 01:29N 55°42' E 012°36'0 0.0
2017-Sep-20 00:59N 55°42' E 012°36'0 0.0
2017-Sep-20 00:29N 55°42' E 012°36'0 0.0
2017-Sep-19 23:59N 55°42' E 012°36'0 0.0
2017-Sep-19 23:29N 55°42' E 012°36'0 0.0
2017-Sep-19 22:59N 55°42' E 012°36'0 0.0
2017-Sep-19 22:29N 55°42' E 012°36'0 0.0
2017-Sep-19 21:59N 55°42' E 012°36'0 0.0
2017-Sep-19 21:29N 55°42' E 012°36'0 0.0
2017-Sep-19 20:59N 55°42' E 012°36'0 0.0
2017-Sep-19 20:29N 55°42' E 012°36'0 0.0
2017-Sep-19 19:59N 55°42' E 012°36'0 0.0
2017-Sep-19 19:29N 55°42' E 012°36'0 0.0
2017-Sep-19 18:59N 55°42' E 012°36'0 0.0
2017-Sep-19 18:29N 55°42' E 012°36'0 0.0
2017-Sep-19 17:59N 55°42' E 012°36'0 0.0
2017-Sep-19 17:29N 55°42' E 012°36'0 0.0
2017-Sep-19 16:59N 55°42' E 012°36'0 0.0
2017-Sep-19 16:29N 55°42' E 012°36'0 0.0
2017-Sep-19 15:59N 55°42' E 012°36'0 0.0
2017-Sep-19 15:29N 55°42' E 012°36'0 0.0
2017-Sep-19 14:59N 55°42' E 012°36'0 0.0
2017-Sep-19 14:29N 55°42' E 012°36'0 0.0
2017-Sep-19 13:59N 55°42' E 012°36'0 0.0
2017-Sep-19 13:29N 55°42' E 012°36'0 0.0
2017-Sep-19 12:59N 55°42' E 012°36'0 0.0
2017-Sep-19 12:29N 55°42' E 012°36'0 0.0
2017-Sep-19 11:59N 55°42' E 012°36'0 0.0
2017-Sep-19 11:29N 55°42' E 012°36'0 0.0
2017-Sep-19 10:59N 55°42' E 012°36'0 0.0
2017-Sep-19 10:29N 55°42' E 012°36'0 0.0
2017-Sep-19 09:59N 55°42' E 012°36'0 0.0
2017-Sep-19 09:29N 55°42' E 012°36'0 0.0
2017-Sep-19 08:59N 55°42' E 012°36'0 0.0
2017-Sep-19 08:29N 55°42' E 012°36'0 0.0
2017-Sep-19 08:01N 55°42' E 012°36'2 3.6
2017-Sep-19 07:31N 55°43' E 012°39'3 6.1
2017-Sep-19 07:01N 55°46' E 012°41'611.1
2017-Sep-19 06:31N 55°51' E 012°41'611.8
2017-Sep-19 06:01N 55°57' E 012°39'612.6
2017-Sep-19 05:30N 56°04' E 012°38'510.4
2017-Sep-19 05:01N 56°07' E 012°31'611.2
2017-Sep-19 04:31N 56°10' E 012°23'611.1
2017-Sep-19 04:01N 56°13' E 012°14'4214.0
2017-Sep-19 00:59N 56°53' E 011°47'1115.8
2017-Sep-19 00:18N 57°03' E 011°40'515.2
2017-Sep-18 23:59N 57°07' E 011°37'715.5
2017-Sep-18 23:30N 57°14' E 011°33'815.5
2017-Sep-18 23:00N 57°22' E 011°28'815.2
2017-Sep-18 22:30N 57°29' E 011°22'815.8
2017-Sep-18 22:00N 57°34' E 011°11'815.7
2017-Sep-18 21:30N 57°39' E 011°01'815.7
2017-Sep-18 21:00N 57°45' E 010°49'815.6
2017-Sep-18 20:30N 57°50' E 010°38'815.3
2017-Sep-18 20:00N 57°51' E 010°24'816.1
2017-Sep-18 19:29N 57°50' E 010°08'39215.5
2017-Sep-17 18:10N 55°15' W 000°45'214.8
2017-Sep-17 18:00N 55°14' W 000°49'714.9
2017-Sep-17 17:30N 55°10' W 000°60'714.9
2017-Sep-17 17:00N 55°06' W 001°10'715.0
2017-Sep-17 16:31N 55°01' W 001°21'4 7.4
2017-Sep-17 16:00N 54°59' W 001°27'0 0.2
2017-Sep-17 15:30N 54°60' W 001°27'0 0.0
2017-Sep-17 15:00N 54°60' W 001°27'0 0.0
2017-Sep-17 14:30N 54°60' W 001°27'0 0.0
2017-Sep-17 14:00N 54°60' W 001°27'0 0.0
2017-Sep-17 13:30N 54°60' W 001°27'0 0.0
2017-Sep-17 13:00N 54°60' W 001°27'0 0.0
2017-Sep-17 12:30N 54°60' W 001°27'0 0.0
2017-Sep-17 12:00N 54°60' W 001°27'0 0.0
2017-Sep-17 11:30N 54°60' W 001°27'0 0.0
2017-Sep-17 11:00N 54°60' W 001°27'0 0.0
2017-Sep-17 10:30N 54°60' W 001°27'0 0.0
2017-Sep-17 10:00N 54°60' W 001°27'0 0.0
2017-Sep-17 09:30N 54°60' W 001°27'0 0.0
2017-Sep-17 09:00N 54°60' W 001°27'0 0.0
2017-Sep-17 08:30N 54°60' W 001°27'0 0.0
2017-Sep-17 08:00N 54°60' W 001°27'0 0.0
2017-Sep-17 07:27N 54°60' W 001°27'0 0.0
2017-Sep-17 06:57N 54°60' W 001°27'0 0.0
2017-Sep-17 06:30N 54°60' W 001°27'0 0.0
2017-Sep-17 06:00N 54°60' W 001°27'0 0.0
2017-Sep-17 05:27N 54°60' W 001°27'0 0.0
2017-Sep-17 05:00N 54°60' W 001°27'0 0.2
2017-Sep-17 04:31N 54°60' W 001°27'3 6.0
2017-Sep-17 04:01N 55°01' W 001°22'510.7
2017-Sep-17 03:30N 55°05' W 001°15'611.2
2017-Sep-17 03:01N 55°08' W 001°08'611.1
2017-Sep-17 02:31N 55°13' W 001°02'510.1
2017-Sep-17 02:00N 55°17' W 000°58'5 9.4
2017-Sep-17 01:31N 55°21' W 000°54'  

Dump ship's entire track history